sensor_id;sensor_type;location;lat;lon;timestamp;P1;durP1;ratioP1;P2;durP2;ratioP2
67721;SDS011;58309;45.292;11.820;2023-08-06T00:00:02;1.40;;;1.30;;
67721;SDS011;58309;45.292;11.820;2023-08-06T00:02:28;2.78;;;1.27;;
67721;SDS011;58309;45.292;11.820;2023-08-06T00:04:53;3.22;;;1.23;;
67721;SDS011;58309;45.292;11.820;2023-08-06T00:07:18;3.08;;;1.50;;
67721;SDS011;58309;45.292;11.820;2023-08-06T00:09:44;2.63;;;2.10;;
67721;SDS011;58309;45.292;11.820;2023-08-06T00:12:09;1.35;;;1.25;;
67721;SDS011;58309;45.292;11.820;2023-08-06T00:14:35;2.97;;;1.38;;
67721;SDS011;58309;45.292;11.820;2023-08-06T00:17:00;1.25;;;1.20;;
67721;SDS011;58309;45.292;11.820;2023-08-06T00:19:26;1.83;;;1.15;;
67721;SDS011;58309;45.292;11.820;2023-08-06T00:21:51;1.30;;;1.17;;
67721;SDS011;58309;45.292;11.820;2023-08-06T00:24:17;1.08;;;1.08;;
67721;SDS011;58309;45.292;11.820;2023-08-06T00:26:42;1.25;;;1.15;;
67721;SDS011;58309;45.292;11.820;2023-08-06T00:29:07;2.28;;;1.20;;
67721;SDS011;58309;45.292;11.820;2023-08-06T00:31:33;1.27;;;1.20;;
67721;SDS011;58309;45.292;11.820;2023-08-06T00:36:34;1.15;;;1.10;;
67721;SDS011;58309;45.292;11.820;2023-08-06T00:38:59;1.05;;;1.05;;
67721;SDS011;58309;45.292;11.820;2023-08-06T00:41:25;1.00;;;1.00;;
67721;SDS011;58309;45.292;11.820;2023-08-06T00:43:50;0.80;;;0.80;;
67721;SDS011;58309;45.292;11.820;2023-08-06T00:46:16;0.95;;;0.80;;
67721;SDS011;58309;45.292;11.820;2023-08-06T00:48:42;0.73;;;0.73;;
67721;SDS011;58309;45.292;11.820;2023-08-06T00:51:08;0.70;;;0.70;;
67721;SDS011;58309;45.292;11.820;2023-08-06T00:53:35;1.70;;;0.80;;
67721;SDS011;58309;45.292;11.820;2023-08-06T00:56:02;1.75;;;0.80;;
67721;SDS011;58309;45.292;11.820;2023-08-06T00:58:27;1.40;;;1.10;;
67721;SDS011;58309;45.292;11.820;2023-08-06T01:00:53;0.95;;;0.95;;
67721;SDS011;58309;45.292;11.820;2023-08-06T01:03:19;1.35;;;1.20;;
67721;SDS011;58309;45.292;11.820;2023-08-06T01:05:44;2.65;;;1.30;;
67721;SDS011;58309;45.292;11.820;2023-08-06T01:08:19;1.50;;;1.40;;
67721;SDS011;58309;45.292;11.820;2023-08-06T01:15:46;1.95;;;1.27;;
67721;SDS011;58309;45.292;11.820;2023-08-06T01:18:15;1.00;;;1.00;;
67721;SDS011;58309;45.292;11.820;2023-08-06T01:20:41;0.90;;;0.90;;
67721;SDS011;58309;45.292;11.820;2023-08-06T01:23:07;0.98;;;0.98;;
67721;SDS011;58309;45.292;11.820;2023-08-06T01:25:34;1.30;;;1.20;;
67721;SDS011;58309;45.292;11.820;2023-08-06T01:28:08;1.20;;;1.10;;
67721;SDS011;58309;45.292;11.820;2023-08-06T01:30:41;3.45;;;1.20;;
67721;SDS011;58309;45.292;11.820;2023-08-06T01:33:07;1.35;;;1.20;;
67721;SDS011;58309;45.292;11.820;2023-08-06T01:35:38;1.25;;;0.90;;
67721;SDS011;58309;45.292;11.820;2023-08-06T01:38:04;1.20;;;1.10;;
67721;SDS011;58309;45.292;11.820;2023-08-06T01:40:30;1.00;;;1.00;;
67721;SDS011;58309;45.292;11.820;2023-08-06T01:42:55;3.60;;;1.40;;
67721;SDS011;58309;45.292;11.820;2023-08-06T01:45:21;2.50;;;1.50;;
67721;SDS011;58309;45.292;11.820;2023-08-06T01:47:48;1.20;;;1.20;;
67721;SDS011;58309;45.292;11.820;2023-08-06T01:50:13;1.50;;;1.40;;
67721;SDS011;58309;45.292;11.820;2023-08-06T01:52:39;1.50;;;1.10;;
67721;SDS011;58309;45.292;11.820;2023-08-06T01:55:05;3.90;;;1.30;;
67721;SDS011;58309;45.292;11.820;2023-08-06T01:57:31;1.52;;;1.38;;
67721;SDS011;58309;45.292;11.820;2023-08-06T01:59:57;1.35;;;1.30;;
67721;SDS011;58309;45.292;11.820;2023-08-06T02:02:22;1.83;;;1.45;;
67721;SDS011;58309;45.292;11.820;2023-08-06T02:04:48;1.50;;;1.20;;
67721;SDS011;58309;45.292;11.820;2023-08-06T02:07:13;4.80;;;1.20;;
67721;SDS011;58309;45.292;11.820;2023-08-06T02:09:39;1.10;;;1.10;;
67721;SDS011;58309;45.292;11.820;2023-08-06T02:12:05;1.40;;;1.30;;
67721;SDS011;58309;45.292;11.820;2023-08-06T02:14:31;1.35;;;1.23;;
67721;SDS011;58309;45.292;11.820;2023-08-06T02:16:56;1.65;;;1.55;;
67721;SDS011;58309;45.292;11.820;2023-08-06T02:19:22;1.50;;;1.40;;
67721;SDS011;58309;45.292;11.820;2023-08-06T02:21:47;1.75;;;1.50;;
67721;SDS011;58309;45.292;11.820;2023-08-06T02:24:13;2.00;;;1.80;;
67721;SDS011;58309;45.292;11.820;2023-08-06T02:26:38;2.38;;;1.60;;
67721;SDS011;58309;45.292;11.820;2023-08-06T02:29:03;2.10;;;2.00;;
67721;SDS011;58309;45.292;11.820;2023-08-06T02:31:29;2.83;;;2.35;;
67721;SDS011;58309;45.292;11.820;2023-08-06T02:33:54;5.25;;;2.40;;
67721;SDS011;58309;45.292;11.820;2023-08-06T02:36:20;3.25;;;2.60;;
67721;SDS011;58309;45.292;11.820;2023-08-06T02:38:45;3.58;;;3.28;;
67721;SDS011;58309;45.292;11.820;2023-08-06T02:41:11;3.65;;;3.35;;
67721;SDS011;58309;45.292;11.820;2023-08-06T02:43:37;4.90;;;3.75;;
67721;SDS011;58309;45.292;11.820;2023-08-06T02:46:02;4.30;;;3.83;;
67721;SDS011;58309;45.292;11.820;2023-08-06T02:48:28;4.63;;;4.22;;
67721;SDS011;58309;45.292;11.820;2023-08-06T02:50:56;4.97;;;4.32;;
67721;SDS011;58309;45.292;11.820;2023-08-06T02:53:23;9.70;;;5.53;;
67721;SDS011;58309;45.292;11.820;2023-08-06T02:55:48;6.13;;;5.25;;
67721;SDS011;58309;45.292;11.820;2023-08-06T02:58:14;8.35;;;5.80;;
67721;SDS011;58309;45.292;11.820;2023-08-06T03:00:40;6.63;;;5.95;;
67721;SDS011;58309;45.292;11.820;2023-08-06T03:03:06;7.40;;;6.30;;
67721;SDS011;58309;45.292;11.820;2023-08-06T03:05:31;8.40;;;5.97;;
67721;SDS011;58309;45.292;11.820;2023-08-06T03:07:57;10.48;;;6.22;;
67721;SDS011;58309;45.292;11.820;2023-08-06T03:10:22;6.63;;;6.00;;
67721;SDS011;58309;45.292;11.820;2023-08-06T03:12:48;7.00;;;6.40;;
67721;SDS011;58309;45.292;11.820;2023-08-06T03:15:13;8.75;;;6.80;;
67721;SDS011;58309;45.292;11.820;2023-08-06T03:17:39;11.23;;;7.75;;
67721;SDS011;58309;45.292;11.820;2023-08-06T03:20:05;8.18;;;7.38;;
67721;SDS011;58309;45.292;11.820;2023-08-06T03:22:32;12.65;;;8.15;;
67721;SDS011;58309;45.292;11.820;2023-08-06T03:24:58;10.10;;;7.85;;
67721;SDS011;58309;45.292;11.820;2023-08-06T03:27:23;8.60;;;7.80;;
67721;SDS011;58309;45.292;11.820;2023-08-06T03:29:49;9.05;;;7.82;;
67721;SDS011;58309;45.292;11.820;2023-08-06T03:32:15;9.65;;;7.70;;
67721;SDS011;58309;45.292;11.820;2023-08-06T03:34:40;8.90;;;8.00;;
67721;SDS011;58309;45.292;11.820;2023-08-06T03:37:06;9.05;;;7.70;;
67721;SDS011;58309;45.292;11.820;2023-08-06T03:39:31;9.60;;;7.60;;
67721;SDS011;58309;45.292;11.820;2023-08-06T03:41:57;9.48;;;7.85;;
67721;SDS011;58309;45.292;11.820;2023-08-06T03:44:22;9.32;;;7.68;;
67721;SDS011;58309;45.292;11.820;2023-08-06T03:46:48;8.23;;;7.43;;
67721;SDS011;58309;45.292;11.820;2023-08-06T03:49:13;8.52;;;7.63;;
67721;SDS011;58309;45.292;11.820;2023-08-06T03:51:39;9.93;;;8.00;;
67721;SDS011;58309;45.292;11.820;2023-08-06T03:54:04;8.48;;;7.68;;
67721;SDS011;58309;45.292;11.820;2023-08-06T03:56:29;9.57;;;7.57;;
67721;SDS011;58309;45.292;11.820;2023-08-06T03:58:55;8.82;;;7.38;;
67721;SDS011;58309;45.292;11.820;2023-08-06T04:01:20;16.83;;;10.85;;
67721;SDS011;58309;45.292;11.820;2023-08-06T04:03:46;27.83;;;15.45;;
67721;SDS011;58309;45.292;11.820;2023-08-06T04:06:11;29.15;;;15.00;;
67721;SDS011;58309;45.292;11.820;2023-08-06T04:08:37;28.35;;;13.65;;
67721;SDS011;58309;45.292;11.820;2023-08-06T04:11:02;19.15;;;11.93;;
67721;SDS011;58309;45.292;11.820;2023-08-06T04:13:28;20.02;;;11.48;;
67721;SDS011;58309;45.292;11.820;2023-08-06T04:15:54;16.90;;;12.35;;
67721;SDS011;58309;45.292;11.820;2023-08-06T04:18:19;18.75;;;11.10;;
67721;SDS011;58309;45.292;11.820;2023-08-06T04:20:45;13.00;;;10.48;;
67721;SDS011;58309;45.292;11.820;2023-08-06T04:23:14;11.40;;;9.73;;
67721;SDS011;58309;45.292;11.820;2023-08-06T04:25:40;13.30;;;10.20;;
67721;SDS011;58309;45.292;11.820;2023-08-06T04:28:05;11.88;;;9.75;;
67721;SDS011;58309;45.292;11.820;2023-08-06T04:30:31;12.27;;;9.93;;
67721;SDS011;58309;45.292;11.820;2023-08-06T04:32:57;11.95;;;10.63;;
67721;SDS011;58309;45.292;11.820;2023-08-06T04:35:25;18.13;;;12.98;;
67721;SDS011;58309;45.292;11.820;2023-08-06T04:37:51;19.83;;;13.73;;
67721;SDS011;58309;45.292;11.820;2023-08-06T04:40:16;18.65;;;13.40;;
67721;SDS011;58309;45.292;11.820;2023-08-06T04:42:42;18.75;;;14.32;;
67721;SDS011;58309;45.292;11.820;2023-08-06T04:45:07;16.55;;;13.35;;
67721;SDS011;58309;45.292;11.820;2023-08-06T04:47:33;14.15;;;11.20;;
67721;SDS011;58309;45.292;11.820;2023-08-06T04:49:59;16.02;;;12.73;;
67721;SDS011;58309;45.292;11.820;2023-08-06T04:52:24;19.85;;;13.52;;
67721;SDS011;58309;45.292;11.820;2023-08-06T04:54:53;17.02;;;13.18;;
67721;SDS011;58309;45.292;11.820;2023-08-06T04:57:19;18.95;;;13.82;;
67721;SDS011;58309;45.292;11.820;2023-08-06T04:59:45;23.45;;;14.95;;
67721;SDS011;58309;45.292;11.820;2023-08-06T05:02:12;17.48;;;13.85;;
67721;SDS011;58309;45.292;11.820;2023-08-06T05:04:38;22.90;;;15.25;;
67721;SDS011;58309;45.292;11.820;2023-08-06T05:07:07;20.15;;;15.15;;
67721;SDS011;58309;45.292;11.820;2023-08-06T05:09:33;21.60;;;15.30;;
67721;SDS011;58309;45.292;11.820;2023-08-06T05:12:00;20.30;;;15.05;;
67721;SDS011;58309;45.292;11.820;2023-08-06T05:14:26;18.25;;;14.95;;
67721;SDS011;58309;45.292;11.820;2023-08-06T05:16:51;18.60;;;13.98;;
67721;SDS011;58309;45.292;11.820;2023-08-06T05:19:17;14.20;;;12.55;;
67721;SDS011;58309;45.292;11.820;2023-08-06T05:21:42;13.70;;;10.57;;
67721;SDS011;58309;45.292;11.820;2023-08-06T05:24:08;15.05;;;11.07;;
67721;SDS011;58309;45.292;11.820;2023-08-06T05:26:33;13.35;;;10.68;;
67721;SDS011;58309;45.292;11.820;2023-08-06T05:29:00;12.02;;;10.25;;
67721;SDS011;58309;45.292;11.820;2023-08-06T05:31:25;12.80;;;10.40;;
67721;SDS011;58309;45.292;11.820;2023-08-06T05:33:51;12.30;;;9.55;;
67721;SDS011;58309;45.292;11.820;2023-08-06T05:36:16;11.80;;;9.63;;
67721;SDS011;58309;45.292;11.820;2023-08-06T05:38:42;11.07;;;8.18;;
67721;SDS011;58309;45.292;11.820;2023-08-06T05:41:08;11.73;;;7.50;;
67721;SDS011;58309;45.292;11.820;2023-08-06T05:43:33;10.48;;;8.00;;
67721;SDS011;58309;45.292;11.820;2023-08-06T05:45:59;9.50;;;8.52;;
67721;SDS011;58309;45.292;11.820;2023-08-06T05:48:24;11.13;;;9.00;;
67721;SDS011;58309;45.292;11.820;2023-08-06T05:50:51;12.80;;;9.10;;
67721;SDS011;58309;45.292;11.820;2023-08-06T05:53:17;9.55;;;8.10;;
67721;SDS011;58309;45.292;11.820;2023-08-06T05:55:42;12.82;;;8.82;;
67721;SDS011;58309;45.292;11.820;2023-08-06T05:58:08;10.77;;;8.93;;
67721;SDS011;58309;45.292;11.820;2023-08-06T06:00:34;13.52;;;8.82;;
67721;SDS011;58309;45.292;11.820;2023-08-06T06:03:00;10.73;;;7.80;;
67721;SDS011;58309;45.292;11.820;2023-08-06T06:05:25;11.10;;;8.90;;
67721;SDS011;58309;45.292;11.820;2023-08-06T06:07:51;10.43;;;9.38;;
67721;SDS011;58309;45.292;11.820;2023-08-06T06:10:16;11.55;;;9.30;;
67721;SDS011;58309;45.292;11.820;2023-08-06T06:12:42;10.05;;;8.10;;
67721;SDS011;58309;45.292;11.820;2023-08-06T06:15:07;9.50;;;7.13;;
67721;SDS011;58309;45.292;11.820;2023-08-06T06:17:33;9.52;;;7.45;;
67721;SDS011;58309;45.292;11.820;2023-08-06T06:19:58;9.15;;;7.30;;
67721;SDS011;58309;45.292;11.820;2023-08-06T06:22:24;7.25;;;6.55;;
67721;SDS011;58309;45.292;11.820;2023-08-06T06:24:49;6.95;;;6.25;;
67721;SDS011;58309;45.292;11.820;2023-08-06T06:27:15;7.63;;;5.97;;
67721;SDS011;58309;45.292;11.820;2023-08-06T06:29:40;9.10;;;7.15;;
67721;SDS011;58309;45.292;11.820;2023-08-06T06:32:06;8.18;;;7.38;;
67721;SDS011;58309;45.292;11.820;2023-08-06T06:34:31;11.70;;;7.10;;
67721;SDS011;58309;45.292;11.820;2023-08-06T06:36:57;6.72;;;6.03;;
67721;SDS011;58309;45.292;11.820;2023-08-06T06:39:22;10.40;;;5.70;;
67721;SDS011;58309;45.292;11.820;2023-08-06T06:41:48;6.78;;;6.18;;
67721;SDS011;58309;45.292;11.820;2023-08-06T06:44:13;6.32;;;4.85;;
67721;SDS011;58309;45.292;11.820;2023-08-06T06:46:39;6.35;;;4.80;;
67721;SDS011;58309;45.292;11.820;2023-08-06T06:49:05;5.07;;;4.63;;
67721;SDS011;58309;45.292;11.820;2023-08-06T06:51:30;7.18;;;5.30;;
67721;SDS011;58309;45.292;11.820;2023-08-06T06:53:57;5.40;;;4.90;;
67721;SDS011;58309;45.292;11.820;2023-08-06T06:56:22;6.85;;;3.85;;
67721;SDS011;58309;45.292;11.820;2023-08-06T06:58:48;4.50;;;4.10;;
67721;SDS011;58309;45.292;11.820;2023-08-06T07:01:14;4.88;;;4.38;;
67721;SDS011;58309;45.292;11.820;2023-08-06T07:03:39;4.35;;;3.95;;
67721;SDS011;58309;45.292;11.820;2023-08-06T07:06:06;4.90;;;3.67;;
67721;SDS011;58309;45.292;11.820;2023-08-06T07:08:31;5.15;;;3.90;;
67721;SDS011;58309;45.292;11.820;2023-08-06T07:11:04;4.65;;;3.58;;
67721;SDS011;58309;45.292;11.820;2023-08-06T07:13:30;4.55;;;2.97;;
67721;SDS011;58309;45.292;11.820;2023-08-06T07:15:56;2.05;;;1.95;;
67721;SDS011;58309;45.292;11.820;2023-08-06T07:18:23;4.35;;;1.98;;
67721;SDS011;58309;45.292;11.820;2023-08-06T07:20:49;1.88;;;1.48;;
67721;SDS011;58309;45.292;11.820;2023-08-06T07:23:15;1.52;;;1.42;;
67721;SDS011;58309;45.292;11.820;2023-08-06T07:25:40;1.38;;;1.10;;
67721;SDS011;58309;45.292;11.820;2023-08-06T07:28:06;1.20;;;1.10;;
67721;SDS011;58309;45.292;11.820;2023-08-06T07:30:31;1.10;;;1.00;;
67721;SDS011;58309;45.292;11.820;2023-08-06T07:32:57;1.17;;;0.90;;
67721;SDS011;58309;45.292;11.820;2023-08-06T07:35:23;0.93;;;0.90;;
67721;SDS011;58309;45.292;11.820;2023-08-06T07:37:48;3.40;;;1.20;;
67721;SDS011;58309;45.292;11.820;2023-08-06T07:40:13;1.95;;;1.00;;
67721;SDS011;58309;45.292;11.820;2023-08-06T07:42:39;0.68;;;0.68;;
67721;SDS011;58309;45.292;11.820;2023-08-06T07:45:05;0.47;;;0.47;;
67721;SDS011;58309;45.292;11.820;2023-08-06T07:47:32;0.40;;;0.40;;
67721;SDS011;58309;45.292;11.820;2023-08-06T07:49:57;0.65;;;0.40;;
67721;SDS011;58309;45.292;11.820;2023-08-06T07:52:23;0.20;;;0.20;;
67721;SDS011;58309;45.292;11.820;2023-08-06T07:54:48;0.25;;;0.25;;
67721;SDS011;58309;45.292;11.820;2023-08-06T07:57:13;0.40;;;0.40;;
67721;SDS011;58309;45.292;11.820;2023-08-06T07:59:40;0.73;;;0.20;;
67721;SDS011;58309;45.292;11.820;2023-08-06T08:02:05;0.35;;;0.35;;
67721;SDS011;58309;45.292;11.820;2023-08-06T08:04:32;0.30;;;0.30;;
67721;SDS011;58309;45.292;11.820;2023-08-06T08:06:57;0.40;;;0.40;;
67721;SDS011;58309;45.292;11.820;2023-08-06T08:09:23;0.30;;;0.30;;
67721;SDS011;58309;45.292;11.820;2023-08-06T08:11:48;0.50;;;0.30;;
67721;SDS011;58309;45.292;11.820;2023-08-06T08:14:15;1.23;;;0.50;;
67721;SDS011;58309;45.292;11.820;2023-08-06T08:16:41;0.38;;;0.38;;
67721;SDS011;58309;45.292;11.820;2023-08-06T08:19:07;0.45;;;0.43;;
67721;SDS011;58309;45.292;11.820;2023-08-06T08:21:32;3.22;;;0.50;;
67721;SDS011;58309;45.292;11.820;2023-08-06T08:23:59;0.47;;;0.40;;
67721;SDS011;58309;45.292;11.820;2023-08-06T08:26:25;0.40;;;0.40;;
67721;SDS011;58309;45.292;11.820;2023-08-06T08:28:52;4.53;;;0.60;;
67721;SDS011;58309;45.292;11.820;2023-08-06T08:31:18;2.72;;;0.50;;
67721;SDS011;58309;45.292;11.820;2023-08-06T08:33:44;2.47;;;0.52;;
67721;SDS011;58309;45.292;11.820;2023-08-06T08:36:09;0.60;;;0.55;;
67721;SDS011;58309;45.292;11.820;2023-08-06T08:38:35;0.90;;;0.60;;
67721;SDS011;58309;45.292;11.820;2023-08-06T08:41:01;0.50;;;0.50;;
67721;SDS011;58309;45.292;11.820;2023-08-06T08:43:26;0.52;;;0.52;;
67721;SDS011;58309;45.292;11.820;2023-08-06T08:45:53;0.30;;;0.30;;
67721;SDS011;58309;45.292;11.820;2023-08-06T08:48:25;0.40;;;0.40;;
67721;SDS011;58309;45.292;11.820;2023-08-06T08:50:52;0.40;;;0.40;;
67721;SDS011;58309;45.292;11.820;2023-08-06T08:53:17;0.98;;;0.60;;
67721;SDS011;58309;45.292;11.820;2023-08-06T08:55:47;0.50;;;0.50;;
67721;SDS011;58309;45.292;11.820;2023-08-06T08:58:14;0.60;;;0.60;;
67721;SDS011;58309;45.292;11.820;2023-08-06T09:00:43;1.00;;;0.60;;
67721;SDS011;58309;45.292;11.820;2023-08-06T09:03:10;0.75;;;0.57;;
67721;SDS011;58309;45.292;11.820;2023-08-06T09:05:36;3.05;;;2.75;;
67721;SDS011;58309;45.292;11.820;2023-08-06T09:08:07;1.80;;;1.60;;
67721;SDS011;58309;45.292;11.820;2023-08-06T09:10:36;1.80;;;1.70;;
67721;SDS011;58309;45.292;11.820;2023-08-06T09:13:02;0.50;;;0.50;;
67721;SDS011;58309;45.292;11.820;2023-08-06T09:15:28;0.77;;;0.77;;
67721;SDS011;58309;45.292;11.820;2023-08-06T09:17:55;0.52;;;0.50;;
67721;SDS011;58309;45.292;11.820;2023-08-06T09:20:20;0.60;;;0.60;;
67721;SDS011;58309;45.292;11.820;2023-08-06T09:22:46;1.48;;;1.15;;
67721;SDS011;58309;45.292;11.820;2023-08-06T09:25:21;1.20;;;0.70;;
67721;SDS011;58309;45.292;11.820;2023-08-06T09:27:50;0.68;;;0.68;;
67721;SDS011;58309;45.292;11.820;2023-08-06T09:33:17;0.95;;;0.77;;
67721;SDS011;58309;45.292;11.820;2023-08-06T09:35:45;6.65;;;2.45;;
67721;SDS011;58309;45.292;11.820;2023-08-06T09:38:11;4.10;;;0.98;;
67721;SDS011;58309;45.292;11.820;2023-08-06T09:40:37;2.20;;;1.23;;
67721;SDS011;58309;45.292;11.820;2023-08-06T09:43:03;1.13;;;0.90;;
67721;SDS011;58309;45.292;11.820;2023-08-06T09:45:30;6.47;;;1.92;;
67721;SDS011;58309;45.292;11.820;2023-08-06T09:47:58;1.08;;;0.98;;
67721;SDS011;58309;45.292;11.820;2023-08-06T09:50:28;4.95;;;1.90;;
67721;SDS011;58309;45.292;11.820;2023-08-06T09:52:56;7.63;;;2.30;;
67721;SDS011;58309;45.292;11.820;2023-08-06T09:55:22;2.35;;;1.33;;
67721;SDS011;58309;45.292;11.820;2023-08-06T09:57:50;1.02;;;1.02;;
67721;SDS011;58309;45.292;11.820;2023-08-06T10:00:16;1.10;;;1.10;;
67721;SDS011;58309;45.292;11.820;2023-08-06T10:02:42;2.22;;;1.52;;
67721;SDS011;58309;45.292;11.820;2023-08-06T10:05:09;3.28;;;1.35;;
67721;SDS011;58309;45.292;11.820;2023-08-06T10:07:35;1.40;;;1.30;;
67721;SDS011;58309;45.292;11.820;2023-08-06T10:10:02;8.80;;;1.35;;
67721;SDS011;58309;45.292;11.820;2023-08-06T10:12:49;3.33;;;1.45;;
67721;SDS011;58309;45.292;11.820;2023-08-06T10:15:15;2.50;;;1.60;;
67721;SDS011;58309;45.292;11.820;2023-08-06T10:17:43;2.05;;;1.10;;
67721;SDS011;58309;45.292;11.820;2023-08-06T10:20:12;3.75;;;1.15;;
67721;SDS011;58309;45.292;11.820;2023-08-06T10:22:41;1.48;;;1.10;;
67721;SDS011;58309;45.292;11.820;2023-08-06T10:25:09;2.05;;;1.40;;
67721;SDS011;58309;45.292;11.820;2023-08-06T10:27:36;3.45;;;1.08;;
67721;SDS011;58309;45.292;11.820;2023-08-06T10:32:57;1.40;;;1.30;;
67721;SDS011;58309;45.292;11.820;2023-08-06T10:38:14;1.30;;;1.30;;
67721;SDS011;58309;45.292;11.820;2023-08-06T10:40:42;4.20;;;1.80;;
67721;SDS011;58309;45.292;11.820;2023-08-06T10:43:28;3.63;;;1.60;;
67721;SDS011;58309;45.292;11.820;2023-08-06T10:45:54;1.50;;;1.40;;
67721;SDS011;58309;45.292;11.820;2023-08-06T10:48:39;1.48;;;1.38;;
67721;SDS011;58309;45.292;11.820;2023-08-06T10:51:09;1.88;;;1.58;;
67721;SDS011;58309;45.292;11.820;2023-08-06T10:53:36;1.65;;;1.50;;
67721;SDS011;58309;45.292;11.820;2023-08-06T10:56:11;1.60;;;1.50;;
67721;SDS011;58309;45.292;11.820;2023-08-06T10:58:46;3.00;;;1.63;;
67721;SDS011;58309;45.292;11.820;2023-08-06T11:01:12;2.97;;;1.60;;
67721;SDS011;58309;45.292;11.820;2023-08-06T11:03:39;2.90;;;1.80;;
67721;SDS011;58309;45.292;11.820;2023-08-06T11:06:08;2.08;;;1.60;;
67721;SDS011;58309;45.292;11.820;2023-08-06T11:08:35;3.13;;;1.60;;
67721;SDS011;58309;45.292;11.820;2023-08-06T11:11:09;1.60;;;1.50;;
67721;SDS011;58309;45.292;11.820;2023-08-06T11:13:45;2.20;;;1.92;;
67721;SDS011;58309;45.292;11.820;2023-08-06T11:16:21;1.50;;;1.40;;
67721;SDS011;58309;45.292;11.820;2023-08-06T11:18:49;1.95;;;1.38;;
67721;SDS011;58309;45.292;11.820;2023-08-06T11:21:18;1.63;;;1.50;;
67721;SDS011;58309;45.292;11.820;2023-08-06T11:23:45;2.65;;;1.70;;
67721;SDS011;58309;45.292;11.820;2023-08-06T11:26:10;1.45;;;1.35;;
67721;SDS011;58309;45.292;11.820;2023-08-06T11:28:36;2.55;;;2.08;;
67721;SDS011;58309;45.292;11.820;2023-08-06T11:31:01;1.90;;;1.60;;
67721;SDS011;58309;45.292;11.820;2023-08-06T11:33:28;2.22;;;1.83;;
67721;SDS011;58309;45.292;11.820;2023-08-06T11:35:54;2.17;;;1.23;;
67721;SDS011;58309;45.292;11.820;2023-08-06T11:38:21;2.00;;;1.30;;
67721;SDS011;58309;45.292;11.820;2023-08-06T11:40:50;1.50;;;1.40;;
67721;SDS011;58309;45.292;11.820;2023-08-06T11:43:17;3.33;;;1.50;;
67721;SDS011;58309;45.292;11.820;2023-08-06T11:45:43;1.40;;;1.10;;
67721;SDS011;58309;45.292;11.820;2023-08-06T11:48:09;1.73;;;1.30;;
67721;SDS011;58309;45.292;11.820;2023-08-06T11:50:38;3.67;;;1.30;;
67721;SDS011;58309;45.292;11.820;2023-08-06T11:53:04;3.25;;;1.50;;
67721;SDS011;58309;45.292;11.820;2023-08-06T11:55:30;1.70;;;1.60;;
67721;SDS011;58309;45.292;11.820;2023-08-06T11:57:56;1.92;;;1.42;;
67721;SDS011;58309;45.292;11.820;2023-08-06T12:00:23;1.80;;;1.50;;
67721;SDS011;58309;45.292;11.820;2023-08-06T12:02:50;1.60;;;1.40;;
67721;SDS011;58309;45.292;11.820;2023-08-06T12:07:46;1.60;;;1.50;;
67721;SDS011;58309;45.292;11.820;2023-08-06T12:10:14;1.60;;;1.50;;
67721;SDS011;58309;45.292;11.820;2023-08-06T12:12:41;1.50;;;1.40;;
67721;SDS011;58309;45.292;11.820;2023-08-06T12:15:07;1.70;;;1.60;;
67721;SDS011;58309;45.292;11.820;2023-08-06T12:17:35;2.05;;;1.45;;
67721;SDS011;58309;45.292;11.820;2023-08-06T12:20:05;1.73;;;1.40;;
67721;SDS011;58309;45.292;11.820;2023-08-06T12:25:06;1.85;;;1.33;;
67721;SDS011;58309;45.292;11.820;2023-08-06T12:27:36;2.85;;;1.80;;
67721;SDS011;58309;45.292;11.820;2023-08-06T12:30:02;1.92;;;1.73;;
67721;SDS011;58309;45.292;11.820;2023-08-06T12:32:29;2.28;;;1.77;;
67721;SDS011;58309;45.292;11.820;2023-08-06T12:34:55;1.80;;;1.70;;
67721;SDS011;58309;45.292;11.820;2023-08-06T12:37:20;2.15;;;1.70;;
67721;SDS011;58309;45.292;11.820;2023-08-06T12:39:46;2.03;;;1.70;;
67721;SDS011;58309;45.292;11.820;2023-08-06T12:42:12;1.77;;;1.60;;
67721;SDS011;58309;45.292;11.820;2023-08-06T12:44:38;2.22;;;1.80;;
67721;SDS011;58309;45.292;11.820;2023-08-06T12:47:03;1.77;;;1.67;;
67721;SDS011;58309;45.292;11.820;2023-08-06T12:49:29;1.50;;;1.40;;
67721;SDS011;58309;45.292;11.820;2023-08-06T12:51:56;3.05;;;1.70;;
67721;SDS011;58309;45.292;11.820;2023-08-06T12:54:23;3.40;;;2.17;;
67721;SDS011;58309;45.292;11.820;2023-08-06T12:56:49;3.13;;;2.10;;
67721;SDS011;58309;45.292;11.820;2023-08-06T12:59:15;2.65;;;1.90;;
67721;SDS011;58309;45.292;11.820;2023-08-06T13:01:42;1.80;;;1.70;;
67721;SDS011;58309;45.292;11.820;2023-08-06T13:04:08;1.80;;;1.70;;
67721;SDS011;58309;45.292;11.820;2023-08-06T13:06:34;2.00;;;1.80;;
67721;SDS011;58309;45.292;11.820;2023-08-06T13:09:02;1.75;;;1.65;;
67721;SDS011;58309;45.292;11.820;2023-08-06T13:11:28;3.60;;;1.70;;
67721;SDS011;58309;45.292;11.820;2023-08-06T13:13:55;1.73;;;1.63;;
67721;SDS011;58309;45.292;11.820;2023-08-06T13:16:21;6.40;;;2.50;;
67721;SDS011;58309;45.292;11.820;2023-08-06T13:18:47;2.58;;;1.80;;
67721;SDS011;58309;45.292;11.820;2023-08-06T13:21:12;2.08;;;1.98;;
67721;SDS011;58309;45.292;11.820;2023-08-06T13:23:38;5.18;;;2.17;;
67721;SDS011;58309;45.292;11.820;2023-08-06T13:26:03;3.22;;;1.90;;
67721;SDS011;58309;45.292;11.820;2023-08-06T13:28:29;3.70;;;2.10;;
67721;SDS011;58309;45.292;11.820;2023-08-06T13:30:55;2.20;;;2.00;;
67721;SDS011;58309;45.292;11.820;2023-08-06T13:33:20;4.00;;;1.90;;
67721;SDS011;58309;45.292;11.820;2023-08-06T13:35:46;2.55;;;1.83;;
67721;SDS011;58309;45.292;11.820;2023-08-06T13:38:11;2.10;;;2.00;;
67721;SDS011;58309;45.292;11.820;2023-08-06T13:40:37;2.90;;;1.90;;
67721;SDS011;58309;45.292;11.820;2023-08-06T13:43:02;2.15;;;1.67;;
67721;SDS011;58309;45.292;11.820;2023-08-06T13:45:27;2.10;;;1.80;;
67721;SDS011;58309;45.292;11.820;2023-08-06T13:47:55;2.40;;;2.00;;
67721;SDS011;58309;45.292;11.820;2023-08-06T13:50:20;3.53;;;1.98;;
67721;SDS011;58309;45.292;11.820;2023-08-06T13:52:47;3.10;;;1.80;;
67721;SDS011;58309;45.292;11.820;2023-08-06T13:55:12;2.28;;;1.50;;
67721;SDS011;58309;45.292;11.820;2023-08-06T13:57:38;1.55;;;1.45;;
67721;SDS011;58309;45.292;11.820;2023-08-06T14:00:03;2.45;;;1.38;;
67721;SDS011;58309;45.292;11.820;2023-08-06T14:02:30;1.45;;;1.35;;
67721;SDS011;58309;45.292;11.820;2023-08-06T14:04:56;1.50;;;1.40;;
67721;SDS011;58309;45.292;11.820;2023-08-06T14:07:21;1.95;;;1.50;;
67721;SDS011;58309;45.292;11.820;2023-08-06T14:09:47;1.98;;;1.25;;
67721;SDS011;58309;45.292;11.820;2023-08-06T14:12:14;2.00;;;1.50;;
67721;SDS011;58309;45.292;11.820;2023-08-06T14:14:40;1.55;;;1.30;;
67721;SDS011;58309;45.292;11.820;2023-08-06T14:17:05;2.53;;;1.55;;
67721;SDS011;58309;45.292;11.820;2023-08-06T14:19:31;1.60;;;1.50;;
67721;SDS011;58309;45.292;11.820;2023-08-06T14:21:56;1.50;;;1.40;;
67721;SDS011;58309;45.292;11.820;2023-08-06T14:24:22;1.55;;;1.45;;
67721;SDS011;58309;45.292;11.820;2023-08-06T14:26:47;1.80;;;1.30;;
67721;SDS011;58309;45.292;11.820;2023-08-06T14:29:13;2.78;;;1.35;;
67721;SDS011;58309;45.292;11.820;2023-08-06T14:31:39;1.77;;;1.50;;
67721;SDS011;58309;45.292;11.820;2023-08-06T14:34:05;1.40;;;1.40;;
67721;SDS011;58309;45.292;11.820;2023-08-06T14:36:31;1.33;;;1.23;;
67721;SDS011;58309;45.292;11.820;2023-08-06T14:38:56;1.65;;;1.30;;
67721;SDS011;58309;45.292;11.820;2023-08-06T14:41:22;2.47;;;1.30;;
67721;SDS011;58309;45.292;11.820;2023-08-06T14:43:48;2.35;;;1.30;;
67721;SDS011;58309;45.292;11.820;2023-08-06T14:46:14;1.60;;;1.50;;